createdAt,value
2023-03-10T00:00:26.105Z,89.49
2023-03-10T00:01:26.088Z,89.59
2023-03-10T00:02:26.090Z,89.79
2023-03-10T00:03:26.079Z,90.10
2023-03-10T00:04:26.108Z,89.73
2023-03-10T00:05:26.107Z,90.61
2023-03-10T00:06:26.068Z,89.69
2023-03-10T00:07:26.029Z,89.69
2023-03-10T00:08:27.194Z,89.84
2023-03-10T00:09:26.015Z,89.94
2023-03-10T00:10:26.021Z,90.31
2023-03-10T00:11:25.983Z,90.14
2023-03-10T00:12:25.969Z,90.51
2023-03-10T00:13:25.962Z,91.27
2023-03-10T00:14:25.946Z,91.37
2023-03-10T00:15:26.087Z,90.75
2023-03-10T00:16:25.985Z,90.55
2023-03-10T00:17:25.915Z,90.71
2023-03-10T00:18:25.899Z,91.02
2023-03-10T00:19:25.889Z,91.27
2023-03-10T00:20:25.881Z,91.06
2023-03-10T00:21:25.894Z,90.86
2023-03-10T00:22:25.858Z,91.16
2023-03-10T00:23:25.845Z,91.27
2023-03-10T00:24:25.840Z,91.06
2023-03-10T00:25:25.824Z,90.86
2023-03-10T00:26:25.859Z,91.06
2023-03-10T00:27:25.802Z,91.02
2023-03-10T00:28:25.807Z,90.96
2023-03-10T00:29:25.778Z,91.27
2023-03-10T00:30:25.779Z,91.37
2023-03-10T00:31:25.839Z,91.33
2023-03-10T00:32:25.859Z,91.27
2023-03-10T00:33:25.731Z,91.57
2023-03-10T00:34:25.725Z,90.75
2023-03-10T00:35:25.726Z,90.61
2023-03-10T00:36:25.738Z,90.61
2023-03-10T00:37:25.689Z,90.61
2023-03-10T00:38:25.684Z,90.20
2023-03-10T00:39:25.715Z,90.61
2023-03-10T00:40:25.665Z,90.71
2023-03-10T00:41:25.673Z,90.10
2023-03-10T00:42:25.749Z,90.20
2023-03-10T00:43:25.630Z,90.31
2023-03-10T00:44:25.628Z,89.90
2023-03-10T00:45:25.599Z,89.49
2023-03-10T00:46:25.732Z,90.10
2023-03-10T00:47:25.584Z,89.28
2023-03-10T00:48:25.582Z,89.49
2023-03-10T00:49:25.565Z,89.59
2023-03-10T00:50:25.556Z,89.90
2023-03-10T00:51:25.547Z,88.67
2023-03-10T00:52:25.538Z,88.98
2023-03-10T00:53:25.518Z,89.28
2023-03-10T00:54:25.515Z,89.28
2023-03-10T00:55:25.514Z,89.28
2023-03-10T00:56:25.496Z,89.18
2023-03-10T00:57:25.493Z,91.12
2023-03-10T00:58:25.510Z,91.74
2023-03-10T00:59:25.461Z,92.24
2023-03-10T01:00:25.454Z,91.98
2023-03-10T01:01:25.503Z,92.90
2023-03-10T01:02:25.420Z,93.66
2023-03-10T01:03:25.414Z,93.82
2023-03-10T01:04:25.472Z,94.48
2023-03-10T01:05:25.374Z,95.29
2023-03-10T01:06:25.387Z,95.50
2023-03-10T01:07:25.357Z,95.44
2023-03-10T01:08:25.372Z,96.11
2023-03-10T01:09:25.330Z,96.15
2023-03-10T01:10:25.324Z,96.77
2023-03-10T01:11:25.322Z,96.77
2023-03-10T01:12:25.309Z,96.77
2023-03-10T01:13:25.320Z,97.89
2023-03-10T01:14:25.314Z,97.69
2023-03-10T01:15:25.261Z,97.38
2023-03-10T01:16:25.308Z,97.69
2023-03-10T01:17:25.263Z,97.17
2023-03-10T01:18:25.256Z,97.83
2023-03-10T01:19:25.252Z,97.49
2023-03-10T01:20:25.223Z,97.42
2023-03-10T01:21:25.208Z,97.53
2023-03-10T01:22:25.209Z,97.63
2023-03-10T01:23:25.184Z,97.74
2023-03-10T01:24:25.517Z,96.46
2023-03-10T01:25:25.164Z,96.05
2023-03-10T01:26:25.170Z,96.36
2023-03-10T01:27:25.148Z,95.85
2023-03-10T01:28:25.134Z,95.85
2023-03-10T01:29:25.118Z,96.05
2023-03-10T01:30:25.183Z,95.44
2023-03-10T01:31:25.294Z,95.23
2023-03-10T01:32:25.153Z,95.50
2023-03-10T01:33:25.079Z,95.34
2023-03-10T01:34:25.066Z,94.62
2023-03-10T01:35:25.048Z,95.34
2023-03-10T01:36:25.064Z,95.75
2023-03-10T01:37:25.024Z,95.23
2023-03-10T01:38:25.021Z,95.13
2023-03-10T01:39:25.000Z,94.98
2023-03-10T01:40:24.999Z,94.48
2023-03-10T01:41:25.091Z,94.58
2023-03-10T01:42:24.966Z,94.37
2023-03-10T01:43:24.963Z,94.17
2023-03-10T01:44:24.969Z,93.86
2023-03-10T01:45:24.944Z,94.58
2023-03-10T01:46:24.976Z,94.27
2023-03-10T01:47:24.905Z,93.55
2023-03-10T01:48:24.891Z,93.66
2023-03-10T01:49:24.884Z,93.66
2023-03-10T01:50:24.880Z,93.25
2023-03-10T01:51:24.879Z,93.10
2023-03-10T01:52:24.861Z,92.23
2023-03-10T01:53:24.840Z,92.19
2023-03-10T01:54:24.846Z,92.39
2023-03-10T01:55:24.810Z,92.39
2023-03-10T01:56:24.840Z,92.59
2023-03-10T01:57:24.823Z,92.33
2023-03-10T01:58:24.783Z,92.43
2023-03-10T01:59:24.780Z,92.84
2023-03-10T02:00:24.760Z,92.39
2023-03-10T02:01:24.785Z,92.02
2023-03-10T02:02:24.850Z,91.98
2023-03-10T02:03:24.721Z,92.08
2023-03-10T02:04:24.724Z,91.82
2023-03-10T02:05:24.700Z,92.23
2023-03-10T02:06:24.710Z,91.52
2023-03-10T02:07:24.720Z,91.78
2023-03-10T02:08:24.669Z,91.67
2023-03-10T02:09:24.668Z,91.37
2023-03-10T02:10:24.666Z,91.27
2023-03-10T02:11:24.646Z,91.06
2023-03-10T02:12:24.623Z,91.06
2023-03-10T02:13:24.610Z,91.06
2023-03-10T02:14:24.604Z,91.27
2023-03-10T02:15:24.605Z,91.27
2023-03-10T02:16:24.660Z,90.86
2023-03-10T02:17:24.637Z,90.51
2023-03-10T02:18:24.646Z,90.86
2023-03-10T02:19:24.565Z,90.35
2023-03-10T02:20:24.746Z,90.04
2023-03-10T02:21:24.549Z,90.14
2023-03-10T02:22:24.510Z,90.75
2023-03-10T02:23:24.519Z,90.25
2023-03-10T02:24:24.502Z,90.61
2023-03-10T02:25:24.489Z,90.25
2023-03-10T02:26:24.466Z,90.45
2023-03-10T02:27:24.489Z,89.84
2023-03-10T02:28:24.470Z,90.14
2023-03-10T02:29:24.436Z,89.94
2023-03-10T02:30:24.428Z,90.45
2023-03-10T02:31:24.450Z,90.14
2023-03-10T02:32:24.458Z,90.20
2023-03-10T02:33:24.392Z,90.04
2023-03-10T02:34:24.405Z,90.25
2023-03-10T02:35:24.382Z,90.66
2023-03-10T02:36:24.361Z,90.25
2023-03-10T02:37:24.372Z,89.84
2023-03-10T02:38:24.347Z,90.66
2023-03-10T02:39:24.346Z,90.66
2023-03-10T02:40:24.317Z,91.27
2023-03-10T02:41:24.324Z,91.88
2023-03-10T02:42:24.313Z,91.98
2023-03-10T02:43:24.278Z,92.29
2023-03-10T02:44:24.271Z,92.80
2023-03-10T02:45:24.408Z,92.54
2023-03-10T02:46:24.241Z,92.94
2023-03-10T02:47:24.236Z,93.25
2023-03-10T02:48:27.503Z,93.35
2023-03-10T02:49:24.227Z,93.76
2023-03-10T02:50:24.225Z,94.37
2023-03-10T02:51:24.188Z,94.21
2023-03-10T02:52:24.174Z,94.42
2023-03-10T02:53:24.184Z,95.64
2023-03-10T02:54:24.164Z,95.23
2023-03-10T02:55:24.157Z,95.44
2023-03-10T02:56:24.140Z,96.36
2023-03-10T02:57:24.135Z,96.15
2023-03-10T02:58:24.138Z,95.95
2023-03-10T02:59:24.110Z,96.20
2023-03-10T03:00:24.083Z,96.41
2023-03-10T03:01:24.104Z,96.30
2023-03-10T03:02:24.079Z,96.26
2023-03-10T03:03:24.082Z,96.61
2023-03-10T03:04:24.061Z,96.00
2023-03-10T03:05:24.044Z,95.89
2023-03-10T03:06:24.037Z,96.04
2023-03-10T03:07:24.008Z,95.79
2023-03-10T03:08:24.004Z,96.30
2023-03-10T03:09:24.020Z,96.20
2023-03-10T03:10:23.986Z,96.30
2023-03-10T03:11:23.969Z,96.10
2023-03-10T03:12:23.947Z,96.20
2023-03-10T03:13:23.945Z,96.00
2023-03-10T03:14:23.939Z,95.79
2023-03-10T03:15:23.935Z,96.61
2023-03-10T03:16:24.056Z,96.61
2023-03-10T03:17:23.908Z,96.36
2023-03-10T03:18:23.894Z,96.51
2023-03-10T03:19:23.924Z,96.61
2023-03-10T03:20:23.860Z,96.20
2023-03-10T03:21:23.863Z,96.92
2023-03-10T03:22:23.872Z,96.81
2023-03-10T03:23:23.828Z,96.61
2023-03-10T03:24:23.822Z,97.33
2023-03-10T03:25:23.820Z,97.33
2023-03-10T03:26:23.803Z,97.94
2023-03-10T03:27:23.780Z,98.45
2023-03-10T03:28:23.766Z,98.49
2023-03-10T03:29:23.775Z,98.70
2023-03-10T03:30:23.769Z,98.65
2023-03-10T03:31:23.776Z,98.70
2023-03-10T03:32:23.763Z,98.60
2023-03-10T03:33:23.716Z,98.60
2023-03-10T03:34:23.715Z,99.31
2023-03-10T03:35:23.705Z,98.90
2023-03-10T03:36:23.701Z,99.21
2023-03-10T03:37:23.683Z,99.31
2023-03-10T03:38:23.706Z,99.41
2023-03-10T03:39:23.735Z,99.21
2023-03-10T03:40:23.642Z,99.21
2023-03-10T03:41:23.657Z,99.11
2023-03-10T03:42:23.607Z,99.21
2023-03-10T03:43:23.620Z,99.11
2023-03-10T03:44:23.598Z,99.56
2023-03-10T03:45:23.593Z,99.62
2023-03-10T03:46:23.709Z,99.41
2023-03-10T03:47:23.568Z,99.52
2023-03-10T03:48:23.571Z,98.90
2023-03-10T03:49:23.545Z,99.36
2023-03-10T03:50:23.526Z,99.31
2023-03-10T03:51:23.531Z,99.01
2023-03-10T03:52:23.512Z,99.26
2023-03-10T03:53:23.517Z,99.26
2023-03-10T03:54:23.506Z,98.95
2023-03-10T03:55:23.487Z,99.05
2023-03-10T03:56:23.452Z,98.44
2023-03-10T03:57:23.470Z,98.33
2023-03-10T03:58:23.438Z,98.54
2023-03-10T03:59:23.443Z,98.44
2023-03-10T04:00:23.405Z,98.85
2023-03-10T04:01:23.409Z,98.54
2023-03-10T04:02:23.471Z,98.54
2023-03-10T04:03:23.434Z,98.24
2023-03-10T04:04:23.361Z,98.24
2023-03-10T04:05:23.378Z,97.92
2023-03-10T04:06:23.361Z,97.62
2023-03-10T04:07:23.334Z,97.82
2023-03-10T04:08:23.343Z,96.70
2023-03-10T04:09:23.327Z,96.91
2023-03-10T04:10:23.316Z,96.91
2023-03-10T04:11:23.322Z,96.49
2023-03-10T04:12:23.290Z,97.21
2023-03-10T04:13:23.301Z,97.31
2023-03-10T04:14:23.272Z,96.80
2023-03-10T04:15:23.259Z,96.70
2023-03-10T04:16:23.241Z,96.70
2023-03-10T04:17:23.233Z,96.91
2023-03-10T04:18:23.220Z,96.29
2023-03-10T04:19:23.211Z,96.49
2023-03-10T04:20:23.194Z,96.33
2023-03-10T04:21:23.187Z,96.74
2023-03-10T04:22:23.172Z,97.21
2023-03-10T04:23:23.170Z,97.11
2023-03-10T04:24:23.179Z,97.25
2023-03-10T04:25:59.794Z,97.52
2023-03-10T04:27:31.427Z,97.66
2023-03-10T04:29:10.055Z,97.97
2023-03-10T04:30:51.148Z,98.24
2023-03-10T04:32:34.614Z,98.38
2023-03-10T04:34:16.207Z,98.49
2023-03-10T04:35:57.856Z,98.33
2023-03-10T04:37:38.273Z,98.53
2023-03-10T04:39:16.289Z,98.63
2023-03-10T04:40:53.390Z,99.35
2023-03-10T04:42:31.205Z,99.04
2023-03-10T04:44:09.501Z,98.43
2023-03-10T04:45:43.501Z,98.74
2023-03-10T04:47:19.402Z,98.63
2023-03-10T04:48:53.820Z,98.02
2023-03-10T04:50:27.291Z,97.71
2023-03-10T04:51:58.366Z,98.12
2023-03-10T04:53:27.615Z,97.20
2023-03-10T04:54:56.667Z,96.99
2023-03-10T04:56:24.334Z,97.05
2023-03-10T04:57:49.662Z,96.64
2023-03-10T04:59:13.466Z,96.48
2023-03-10T05:00:36.423Z,96.64
2023-03-10T05:01:56.876Z,96.03
2023-03-10T05:03:16.395Z,96.13
2023-03-10T05:04:33.869Z,96.33
2023-03-10T05:05:50.374Z,95.41
2023-03-10T05:07:06.628Z,95.41
2023-03-10T05:08:19.257Z,94.49
2023-03-10T05:09:29.733Z,94.34
2023-03-10T05:10:39.644Z,93.32
2023-03-10T05:11:47.105Z,93.63
2023-03-10T05:12:54.932Z,93.43
2023-03-10T05:14:00.839Z,93.12
2023-03-10T05:15:05.885Z,93.63
2023-03-10T05:16:10.933Z,93.84
2023-03-10T05:17:13.241Z,93.73
2023-03-10T05:18:15.565Z,93.73
2023-03-10T05:19:16.665Z,93.43
2023-03-10T05:20:16.899Z,93.52
2023-03-10T05:21:16.208Z,92.60
2023-03-10T05:22:13.984Z,92.71
2023-03-10T05:23:11.447Z,92.81
2023-03-10T05:24:08.420Z,92.40
2023-03-10T05:25:04.310Z,92.60
2023-03-10T05:25:59.660Z,92.50
2023-03-10T05:26:54.443Z,92.19
2023-03-10T05:27:49.193Z,92.65
2023-03-10T05:28:40.639Z,92.91
2023-03-10T05:29:33.990Z,92.75
2023-03-10T05:30:25.630Z,92.50
2023-03-10T05:31:17.758Z,92.71
2023-03-10T05:32:06.975Z,92.40
2023-03-10T05:32:57.526Z,92.50
2023-03-10T05:33:45.600Z,92.40
2023-03-10T05:34:35.246Z,92.40
2023-03-10T05:35:22.753Z,92.55
2023-03-10T05:36:11.221Z,92.81
2023-03-10T05:36:56.837Z,92.91
2023-03-10T05:37:44.355Z,92.96
2023-03-10T05:38:25.810Z,92.85
2023-03-10T05:39:12.420Z,92.96
2023-03-10T05:39:54.513Z,93.16
2023-03-10T05:40:41.426Z,93.57
2023-03-10T05:41:20.137Z,93.12
2023-03-10T05:42:05.217Z,92.81
2023-03-10T05:42:42.737Z,93.37
2023-03-10T05:43:28.131Z,93.57
2023-03-10T05:44:03.240Z,92.65
2023-03-10T05:44:43.155Z,92.85
2023-03-10T05:45:43.193Z,92.85
2023-03-10T05:46:17.920Z,92.96
2023-03-10T05:46:52.412Z,92.81
2023-03-10T05:47:52.359Z,92.55
2023-03-10T05:48:27.068Z,92.55
2023-03-10T05:49:27.048Z,92.75
2023-03-10T05:50:27.034Z,92.24
2023-03-10T05:51:27.040Z,92.85
2023-03-10T05:52:27.003Z,92.85
2023-03-10T05:53:27.005Z,92.75
2023-03-10T05:54:27.001Z,93.16
2023-03-10T05:55:26.965Z,93.20
2023-03-10T05:56:26.977Z,92.96
2023-03-10T05:57:26.954Z,92.65
2023-03-10T05:58:26.944Z,92.59
2023-03-10T05:59:26.950Z,92.75
2023-03-10T06:00:26.925Z,92.18
2023-03-10T06:01:26.920Z,93.57
2023-03-10T06:02:26.904Z,93.20
2023-03-10T06:03:27.020Z,93.06
2023-03-10T06:04:26.963Z,92.65
2023-03-10T06:05:26.873Z,92.65
2023-03-10T06:06:26.884Z,92.96
2023-03-10T06:07:26.835Z,93.06
2023-03-10T06:08:26.855Z,93.47
2023-03-10T06:09:26.818Z,93.47
2023-03-10T06:10:26.800Z,92.96
2023-03-10T06:11:26.824Z,93.57
2023-03-10T06:12:26.795Z,93.47
2023-03-10T06:13:26.778Z,93.77
2023-03-10T06:14:26.762Z,93.67
2023-03-10T06:15:26.785Z,93.67
2023-03-10T06:16:26.787Z,93.26
2023-03-10T06:17:26.735Z,93.77
2023-03-10T06:18:26.710Z,93.98
2023-03-10T06:19:26.697Z,93.67
2023-03-10T06:20:26.708Z,93.88
2023-03-10T06:21:26.670Z,93.26
2023-03-10T06:22:26.665Z,93.98
2023-03-10T06:23:26.685Z,93.26
2023-03-10T06:24:26.651Z,92.91
2023-03-10T06:25:26.640Z,93.77
2023-03-10T06:26:26.642Z,93.16
2023-03-10T06:27:26.625Z,92.96
2023-03-10T06:28:26.622Z,93.32
2023-03-10T06:29:26.577Z,93.22
2023-03-10T06:30:26.581Z,93.88
2023-03-10T06:31:26.618Z,93.47
2023-03-10T06:32:26.613Z,93.67
2023-03-10T06:33:26.567Z,93.01
2023-03-10T06:34:26.534Z,92.44
2023-03-10T06:35:26.529Z,92.75
2023-03-10T06:36:26.519Z,92.96
2023-03-10T06:37:26.505Z,92.24
2023-03-10T06:38:26.493Z,92.03
2023-03-10T06:39:27.838Z,92.30
2023-03-10T06:40:26.476Z,91.58
2023-03-10T06:41:26.462Z,91.52
2023-03-10T06:42:26.454Z,91.58
2023-03-10T06:43:26.429Z,91.42
2023-03-10T06:44:26.437Z,91.38
2023-03-10T06:45:26.398Z,90.77
2023-03-10T06:46:26.517Z,90.97
2023-03-10T06:47:26.431Z,90.86
2023-03-10T06:48:26.368Z,90.86
2023-03-10T06:49:26.367Z,90.66
2023-03-10T06:50:26.378Z,90.66
2023-03-10T06:51:26.346Z,90.77
2023-03-10T06:52:26.338Z,90.77
2023-03-10T06:53:26.324Z,90.86
2023-03-10T06:54:26.319Z,90.97
2023-03-10T06:55:26.302Z,90.77
2023-03-10T06:56:26.289Z,90.77
2023-03-10T06:57:26.266Z,90.77
2023-03-10T06:58:26.401Z,90.45
2023-03-10T06:59:26.261Z,90.77
2023-03-10T07:00:26.240Z,90.97
2023-03-10T07:01:26.293Z,90.70
2023-03-10T07:02:26.203Z,90.97
2023-03-10T07:03:26.316Z,90.45
2023-03-10T07:04:26.206Z,90.36
2023-03-10T07:05:26.177Z,90.45
2023-03-10T07:06:26.192Z,90.86
2023-03-10T07:07:26.151Z,90.66
2023-03-10T07:08:26.147Z,90.15
2023-03-10T07:09:26.155Z,90.56
2023-03-10T07:10:26.114Z,90.36
2023-03-10T07:11:26.124Z,90.86
2023-03-10T07:12:26.117Z,90.86
2023-03-10T07:13:26.102Z,90.86
2023-03-10T07:14:26.075Z,90.77
2023-03-10T07:15:26.069Z,90.86
2023-03-10T07:16:26.078Z,90.45
2023-03-10T07:17:26.041Z,90.45
2023-03-10T07:18:26.042Z,90.36
2023-03-10T07:19:26.083Z,90.45
2023-03-10T07:20:26.009Z,90.86
2023-03-10T07:21:25.989Z,90.52
2023-03-10T07:22:26.038Z,90.66
2023-03-10T07:23:26.039Z,91.69
2023-03-10T07:24:25.948Z,91.38
2023-03-10T07:25:25.939Z,91.27
2023-03-10T07:26:25.931Z,91.27
2023-03-10T07:27:25.919Z,91.07
2023-03-10T07:28:25.930Z,91.74
2023-03-10T07:29:25.906Z,91.23
2023-03-10T07:30:25.884Z,91.58
2023-03-10T07:31:26.009Z,91.58
2023-03-10T07:32:25.926Z,91.78
2023-03-10T07:33:25.879Z,91.17
2023-03-10T07:34:25.845Z,91.69
2023-03-10T07:35:25.866Z,91.58
2023-03-10T07:36:25.913Z,91.85
2023-03-10T07:37:25.803Z,92.30
2023-03-10T07:38:25.821Z,92.05
2023-03-10T07:39:25.824Z,92.19
2023-03-10T07:40:25.765Z,92.10
2023-03-10T07:41:25.768Z,92.30
2023-03-10T07:42:25.762Z,92.19
2023-03-10T07:43:25.735Z,92.71
2023-03-10T07:44:25.749Z,92.44
2023-03-10T07:45:25.731Z,92.50
2023-03-10T07:46:25.740Z,92.50
2023-03-10T07:47:25.697Z,92.60
2023-03-10T07:48:25.687Z,92.40
2023-03-10T07:49:25.687Z,92.71
2023-03-10T07:50:25.806Z,92.71
2023-03-10T07:51:25.712Z,92.60
2023-03-10T07:52:25.645Z,92.71
2023-03-10T07:53:25.622Z,92.60
2023-03-10T07:54:25.611Z,92.71
2023-03-10T07:55:25.603Z,92.81
2023-03-10T07:56:25.629Z,92.60
2023-03-10T07:57:25.576Z,92.60
2023-03-10T07:58:25.575Z,92.60
2023-03-10T07:59:25.566Z,93.12
2023-03-10T08:00:25.542Z,93.63
2023-03-10T08:01:25.540Z,93.43
2023-03-10T08:02:25.545Z,93.43
2023-03-10T08:03:25.552Z,93.52
2023-03-10T08:04:25.727Z,93.63
2023-03-10T08:05:25.665Z,93.84
2023-03-10T08:06:25.491Z,93.52
2023-03-10T08:07:25.494Z,93.38
2023-03-10T08:08:25.463Z,92.71
2023-03-10T08:09:25.440Z,92.87
2023-03-10T08:10:25.447Z,93.07
2023-03-10T08:11:25.441Z,92.77
2023-03-10T08:12:25.493Z,92.87
2023-03-10T08:13:25.490Z,92.46
2023-03-10T08:14:25.376Z,92.56
2023-03-10T08:15:25.385Z,91.91
2023-03-10T08:16:25.493Z,91.50
2023-03-10T08:17:25.361Z,91.25
2023-03-10T08:18:25.330Z,90.02
2023-03-10T08:19:25.344Z,89.26
2023-03-10T08:20:25.306Z,89.47
2023-03-10T08:21:25.313Z,88.82
2023-03-10T08:22:25.301Z,88.06
2023-03-10T08:23:25.298Z,87.20
2023-03-10T08:24:25.300Z,86.80
2023-03-10T08:25:25.265Z,86.45
2023-03-10T08:26:25.240Z,84.72
2023-03-10T08:27:26.820Z,83.45
2023-03-10T08:28:25.218Z,83.15
2023-03-10T08:29:25.224Z,81.88
2023-03-10T08:30:25.218Z,82.29
2023-03-10T08:31:25.263Z,81.44
2023-03-10T08:32:25.236Z,81.17
2023-03-10T08:33:25.177Z,80.02
2023-03-10T08:34:25.171Z,80.02
2023-03-10T08:35:25.192Z,80.22
2023-03-10T08:36:25.123Z,79.57
2023-03-10T08:37:25.171Z,79.71
2023-03-10T08:38:25.112Z,79.71
2023-03-10T08:39:27.584Z,78.86
2023-03-10T08:40:25.128Z,79.00
2023-03-10T08:41:25.083Z,79.30
2023-03-10T08:42:25.069Z,79.34
2023-03-10T08:43:25.064Z,79.10
2023-03-10T08:44:25.094Z,78.89
2023-03-10T08:45:25.041Z,79.50
2023-03-10T08:46:25.075Z,78.49
2023-03-10T08:47:28.044Z,78.08
2023-03-10T08:48:24.989Z,78.93
2023-03-10T08:49:24.988Z,79.20
2023-03-10T08:50:25.247Z,78.63
2023-03-10T08:51:25.556Z,78.19
2023-03-10T08:52:24.947Z,78.39
2023-03-10T08:53:24.958Z,77.64
2023-03-10T08:54:24.923Z,77.64
2023-03-10T08:55:25.824Z,77.60
2023-03-10T08:56:24.931Z,76.86
2023-03-10T08:57:24.931Z,76.14
2023-03-10T08:58:24.899Z,75.02
2023-03-10T08:59:24.885Z,75.23
2023-03-10T09:00:24.866Z,73.70
2023-03-10T09:01:24.863Z,75.26
2023-03-10T09:02:24.947Z,75.06
2023-03-10T09:03:24.961Z,75.26
2023-03-10T09:04:24.823Z,76.18
2023-03-10T09:05:24.823Z,76.99
2023-03-10T09:06:24.810Z,75.77
2023-03-10T09:07:24.785Z,74.55
2023-03-10T09:08:27.411Z,75.16
2023-03-10T09:09:24.759Z,75.16
2023-03-10T09:10:24.800Z,74.55
2023-03-10T09:11:24.787Z,74.96
2023-03-10T09:12:24.720Z,75.16
2023-03-10T09:13:24.745Z,75.06
2023-03-10T09:14:24.697Z,74.24
2023-03-10T09:15:24.687Z,73.80
2023-03-10T09:16:24.757Z,73.50
2023-03-10T09:17:24.666Z,75.60
2023-03-10T09:18:24.668Z,75.33
2023-03-10T09:19:24.667Z,74.28
2023-03-10T09:20:24.728Z,72.45
2023-03-10T09:21:24.632Z,73.06
2023-03-10T09:22:24.608Z,72.75
2023-03-10T09:23:24.641Z,72.85
2023-03-10T09:24:24.583Z,73.87
2023-03-10T09:25:24.593Z,71.84
2023-03-10T09:26:24.569Z,72.55
2023-03-10T09:27:24.582Z,72.25
2023-03-10T09:28:24.546Z,71.64
2023-03-10T09:29:41.777Z,72.65
2023-03-10T09:30:25.510Z,71.73
2023-03-10T09:31:24.599Z,72.92
2023-03-10T09:32:24.699Z,73.63
2023-03-10T09:33:24.488Z,73.43
2023-03-10T09:34:24.517Z,72.38
2023-03-10T09:35:24.537Z,72.28
2023-03-10T09:36:24.483Z,72.78
2023-03-10T09:37:24.452Z,71.77
2023-03-10T09:38:24.425Z,72.45
2023-03-10T09:39:24.442Z,70.72
2023-03-10T09:40:24.468Z,69.84
2023-03-10T09:41:24.415Z,70.25
2023-03-10T09:42:36.367Z,70.68
2023-03-10T09:43:25.391Z,70.68
2023-03-10T09:44:24.402Z,71.40
2023-03-10T09:45:24.368Z,72.41
2023-03-10T09:46:24.405Z,71.09
2023-03-10T09:47:24.326Z,71.40
2023-03-10T09:48:26.381Z,69.87
2023-03-10T09:49:24.316Z,71.03
2023-03-10T09:50:24.425Z,71.50
2023-03-10T09:51:24.298Z,71.33
2023-03-10T09:52:24.291Z,70.38
2023-03-10T09:53:24.275Z,70.28
2023-03-10T09:54:24.252Z,70.99
2023-03-10T09:55:24.256Z,71.30
2023-03-10T09:56:24.232Z,69.81
2023-03-10T09:57:24.242Z,70.01
2023-03-10T09:58:24.223Z,70.31
2023-03-10T09:59:24.218Z,70.96
2023-03-10T10:00:24.206Z,71.73
2023-03-10T10:01:24.189Z,71.40
2023-03-10T10:02:24.174Z,70.28
2023-03-10T10:03:24.228Z,69.98
2023-03-10T10:04:24.183Z,70.48
2023-03-10T10:05:24.122Z,69.78
2023-03-10T10:06:26.202Z,70.01
2023-03-10T10:07:24.101Z,70.89
2023-03-10T10:08:25.634Z,70.79
2023-03-10T10:09:24.078Z,70.08
2023-03-10T10:10:24.080Z,70.38
2023-03-10T10:11:24.055Z,70.59
2023-03-10T10:12:24.062Z,70.76
2023-03-10T10:13:24.044Z,70.65
2023-03-10T10:14:31.686Z,70.96
2023-03-10T10:15:25.044Z,70.76
2023-03-10T10:16:33.830Z,70.04
2023-03-10T10:17:25.103Z,69.64
2023-03-10T10:18:25.714Z,69.64
2023-03-10T10:19:23.980Z,69.13
2023-03-10T10:20:23.956Z,69.13
2023-03-10T10:21:26.037Z,68.59
2023-03-10T10:22:23.939Z,67.68
2023-03-10T10:23:23.956Z,67.03
2023-03-10T10:24:23.966Z,66.83
2023-03-10T10:25:23.895Z,66.60
2023-03-10T10:26:23.896Z,66.16
2023-03-10T10:27:25.493Z,65.96
2023-03-10T10:28:23.884Z,65.93
2023-03-10T10:29:23.892Z,66.41
2023-03-10T10:30:26.141Z,64.96
2023-03-10T10:31:23.930Z,64.96
2023-03-10T10:32:23.852Z,63.27
2023-03-10T10:33:23.815Z,64.01
2023-03-10T10:34:23.828Z,64.85
2023-03-10T10:35:23.811Z,65.69
2023-03-10T10:36:23.768Z,67.11
2023-03-10T10:37:23.768Z,68.46
2023-03-10T10:38:23.781Z,67.14
2023-03-10T10:39:24.442Z,66.77
2023-03-10T10:40:23.723Z,66.97
2023-03-10T10:41:23.776Z,67.61
2023-03-10T10:42:23.710Z,68.93
2023-03-10T10:43:23.744Z,67.71
2023-03-10T10:44:23.695Z,67.50
2023-03-10T10:45:23.687Z,67.24
2023-03-10T10:46:23.723Z,67.03
2023-03-10T10:47:23.694Z,66.83
2023-03-10T10:48:23.648Z,66.86
2023-03-10T10:49:23.651Z,66.96
2023-03-10T10:50:23.705Z,68.59
2023-03-10T10:51:23.620Z,67.30
2023-03-10T10:52:23.592Z,67.30
2023-03-10T10:53:23.595Z,67.40
2023-03-10T10:54:23.597Z,67.19
2023-03-10T10:55:23.575Z,67.83
2023-03-10T10:56:23.560Z,68.75
2023-03-10T10:57:23.545Z,68.85
2023-03-10T10:58:23.524Z,69.06
2023-03-10T10:59:23.596Z,69.36
2023-03-10T11:00:23.502Z,69.57
2023-03-10T11:01:23.538Z,69.87
2023-03-10T11:02:23.547Z,69.97
2023-03-10T11:03:23.511Z,69.97
2023-03-10T11:04:23.501Z,70.18
2023-03-10T11:05:23.465Z,69.77
2023-03-10T11:06:23.461Z,70.07
2023-03-10T11:07:23.422Z,69.97
2023-03-10T11:08:23.451Z,70.01
2023-03-10T11:09:23.447Z,70.41
2023-03-10T11:10:23.408Z,70.51
2023-03-10T11:11:23.389Z,71.60
2023-03-10T11:12:23.384Z,71.73
2023-03-10T11:13:23.352Z,73.47
2023-03-10T11:14:23.401Z,75.20
2023-03-10T11:15:23.333Z,76.04
2023-03-10T11:16:23.325Z,75.64
2023-03-10T11:17:23.322Z,76.35
2023-03-10T11:18:23.331Z,76.45
2023-03-10T11:19:23.310Z,77.20
2023-03-10T11:20:23.323Z,77.10
2023-03-10T11:21:23.269Z,77.61
2023-03-10T11:22:23.311Z,77.85
2023-03-10T11:23:23.239Z,78.97
2023-03-10T11:24:25.630Z,78.63
2023-03-10T11:25:23.223Z,78.05
2023-03-10T11:26:23.223Z,78.05
2023-03-10T11:27:23.196Z,78.36
2023-03-10T11:28:23.202Z,78.97
2023-03-10T11:29:23.197Z,79.07
2023-03-10T11:30:25.543Z,80.13
2023-03-10T11:31:23.241Z,80.23
2023-03-10T11:32:23.230Z,80.84
2023-03-10T11:33:23.128Z,82.37
2023-03-10T11:34:23.861Z,82.47
2023-03-10T11:35:23.124Z,82.07
2023-03-10T11:36:23.096Z,81.86
2023-03-10T11:37:23.108Z,82.71
2023-03-10T11:38:23.088Z,83.59
2023-03-10T11:39:23.070Z,83.73
2023-03-10T11:40:23.065Z,83.23
2023-03-10T11:41:23.036Z,83.47
2023-03-10T11:42:25.251Z,84.75
2023-03-10T11:43:23.012Z,85.41
2023-03-10T11:44:23.010Z,85.71
2023-03-10T11:45:22.999Z,86.57
2023-03-10T11:46:23.170Z,85.35
2023-03-10T11:47:23.016Z,85.55
2023-03-10T11:48:23.010Z,86.71
2023-03-10T11:49:22.950Z,86.71
2023-03-10T11:50:23.064Z,88.71
2023-03-10T11:51:22.960Z,88.76
2023-03-10T11:52:22.929Z,88.55
2023-03-10T11:53:22.915Z,88.65
2023-03-10T11:54:25.124Z,88.96
2023-03-10T11:55:22.903Z,88.90
2023-03-10T11:56:22.874Z,89.82
2023-03-10T11:57:22.869Z,90.53
2023-03-10T11:58:22.859Z,90.58
2023-03-10T11:59:22.836Z,90.84
2023-03-10T12:00:24.656Z,91.15
2023-03-10T12:01:22.809Z,92.32
2023-03-10T12:02:22.826Z,91.91
2023-03-10T12:03:22.851Z,92.56
2023-03-10T12:04:22.796Z,92.77
2023-03-10T12:05:22.941Z,92.66
2023-03-10T12:06:24.910Z,93.69
2023-03-10T12:07:22.794Z,93.99
2023-03-10T12:08:22.742Z,94.45
2023-03-10T12:09:22.747Z,94.40
2023-03-10T12:10:22.724Z,93.89
2023-03-10T12:11:22.716Z,94.51
2023-03-10T12:12:24.523Z,94.55
2023-03-10T12:13:22.698Z,95.02
2023-03-10T12:14:22.664Z,95.37
2023-03-10T12:15:22.652Z,95.53
2023-03-10T12:16:22.778Z,95.63
2023-03-10T12:17:22.631Z,95.02
2023-03-10T12:18:24.996Z,95.37
2023-03-10T12:19:22.616Z,95.43
2023-03-10T12:20:22.611Z,95.02
2023-03-10T12:21:22.594Z,95.26
2023-03-10T12:22:22.600Z,94.75
2023-03-10T12:23:22.576Z,95.32
2023-03-10T12:24:22.564Z,95.57
2023-03-10T12:25:22.535Z,95.37
2023-03-10T12:26:22.537Z,95.53
2023-03-10T12:27:22.512Z,96.34
2023-03-10T12:28:22.531Z,95.98
2023-03-10T12:29:22.527Z,96.86
2023-03-10T12:30:23.925Z,96.45
2023-03-10T12:31:22.553Z,96.70
2023-03-10T12:32:22.534Z,96.70
2023-03-10T12:33:22.442Z,96.14
2023-03-10T12:34:22.454Z,95.98
2023-03-10T12:35:22.467Z,96.29
2023-03-10T12:36:24.019Z,95.78
2023-03-10T12:37:22.412Z,95.57
2023-03-10T12:38:22.403Z,95.82
2023-03-10T12:39:22.411Z,95.26
2023-03-10T12:40:22.393Z,94.96
2023-03-10T12:41:22.391Z,95.72
2023-03-10T12:42:23.710Z,95.41
2023-03-10T12:43:22.326Z,96.08
2023-03-10T12:44:22.332Z,96.19
2023-03-10T12:45:22.309Z,96.39
2023-03-10T12:46:22.336Z,95.37
2023-03-10T12:47:22.310Z,95.67
2023-03-10T12:48:22.309Z,95.57
2023-03-10T12:49:22.281Z,95.88
2023-03-10T12:50:22.284Z,95.98
2023-03-10T12:51:22.250Z,96.39
2023-03-10T12:52:22.237Z,96.70
2023-03-10T12:53:22.242Z,96.29
2023-03-10T12:54:22.218Z,96.49
2023-03-10T12:55:22.213Z,95.57
2023-03-10T12:56:22.209Z,95.57
2023-03-10T12:57:22.165Z,95.57
2023-03-10T12:58:22.191Z,95.57
2023-03-10T12:59:22.154Z,96.39
2023-03-10T13:00:22.145Z,95.98
2023-03-10T13:01:22.235Z,96.29